sensor_id;sensor_type;location;lat;lon;timestamp;pressure;altitude;pressure_sealevel;temperature;humidity
76216;BME280;65010;50.190;18.930;2024-03-25T00:02:00;96932.34;;;4.76;58.78
76216;BME280;65010;50.190;18.930;2024-03-25T00:05:02;96934.31;;;4.74;58.80
76216;BME280;65010;50.190;18.930;2024-03-25T00:08:07;96933.16;;;4.77;58.88
76216;BME280;65010;50.190;18.930;2024-03-25T00:11:09;96933.66;;;4.72;59.15
76216;BME280;65010;50.190;18.930;2024-03-25T00:14:12;96936.78;;;4.67;59.45
76216;BME280;65010;50.190;18.930;2024-03-25T00:17:13;96939.25;;;4.61;59.59
76216;BME280;65010;50.190;18.930;2024-03-25T00:20:16;96931.66;;;4.51;60.19
76216;BME280;65010;50.190;18.930;2024-03-25T00:23:20;96927.13;;;4.45;60.23
76216;BME280;65010;50.190;18.930;2024-03-25T00:26:23;96932.84;;;4.40;60.37
76216;BME280;65010;50.190;18.930;2024-03-25T00:29:24;96932.38;;;4.37;60.57
76216;BME280;65010;50.190;18.930;2024-03-25T00:32:27;96923.63;;;4.29;60.91
76216;BME280;65010;50.190;18.930;2024-03-25T00:35:28;96921.53;;;4.25;60.70
76216;BME280;65010;50.190;18.930;2024-03-25T00:38:33;96921.53;;;4.25;61.21
76216;BME280;65010;50.190;18.930;2024-03-25T00:41:35;96920.41;;;4.19;61.30
76216;BME280;65010;50.190;18.930;2024-03-25T00:44:37;96919.28;;;4.14;61.42
76216;BME280;65010;50.190;18.930;2024-03-25T00:47:39;96910.03;;;4.11;61.45
76216;BME280;65010;50.190;18.930;2024-03-25T00:50:41;96920.78;;;4.08;61.83
76216;BME280;65010;50.190;18.930;2024-03-25T00:53:45;96916.56;;;3.99;61.81
76216;BME280;65010;50.190;18.930;2024-03-25T00:56:48;96922.59;;;3.99;62.09
76216;BME280;65010;50.190;18.930;2024-03-25T00:59:49;96919.34;;;3.97;62.01
76216;BME280;65010;50.190;18.930;2024-03-25T01:02:52;96912.06;;;3.93;61.94
76216;BME280;65010;50.190;18.930;2024-03-25T01:05:53;96916.75;;;3.89;62.03
76216;BME280;65010;50.190;18.930;2024-03-25T01:08:59;96899.56;;;3.88;62.08
76216;BME280;65010;50.190;18.930;2024-03-25T01:12:00;96895.50;;;3.85;62.03
76216;BME280;65010;50.190;18.930;2024-03-25T01:15:03;96891.41;;;3.83;62.25
76216;BME280;65010;50.190;18.930;2024-03-25T01:18:06;96901.16;;;3.81;62.41
76216;BME280;65010;50.190;18.930;2024-03-25T01:21:08;96899.88;;;3.77;62.53
76216;BME280;65010;50.190;18.930;2024-03-25T01:24:12;96897.28;;;3.77;62.71
76216;BME280;65010;50.190;18.930;2024-03-25T01:27:14;96896.31;;;3.78;62.50
76216;BME280;65010;50.190;18.930;2024-03-25T01:30:16;96893.22;;;3.82;62.47
76216;BME280;65010;50.190;18.930;2024-03-25T01:33:18;96881.53;;;3.86;62.31
76216;BME280;65010;50.190;18.930;2024-03-25T01:36:20;96890.94;;;3.87;62.46
76216;BME280;65010;50.190;18.930;2024-03-25T01:39:25;96891.94;;;3.86;62.44
76216;BME280;65010;50.190;18.930;2024-03-25T01:42:27;96888.97;;;3.81;62.57
76216;BME280;65010;50.190;18.930;2024-03-25T01:45:31;96883.16;;;3.71;62.91
76216;BME280;65010;50.190;18.930;2024-03-25T01:48:34;96890.78;;;3.73;63.01
76216;BME280;65010;50.190;18.930;2024-03-25T01:51:39;96891.47;;;3.66;63.14
76216;BME280;65010;50.190;18.930;2024-03-25T01:54:45;96888.69;;;3.68;62.98
76216;BME280;65010;50.190;18.930;2024-03-25T01:57:48;96887.06;;;3.67;62.94
76216;BME280;65010;50.190;18.930;2024-03-25T02:00:51;96883.66;;;3.66;63.01
76216;BME280;65010;50.190;18.930;2024-03-25T02:03:56;96883.34;;;3.69;62.92
76216;BME280;65010;50.190;18.930;2024-03-25T02:06:58;96890.78;;;3.73;62.81
76216;BME280;65010;50.190;18.930;2024-03-25T02:10:04;96871.00;;;3.72;62.68
76216;BME280;65010;50.190;18.930;2024-03-25T02:13:07;96885.09;;;3.77;62.48
76216;BME280;65010;50.190;18.930;2024-03-25T02:16:10;96871.44;;;3.75;62.79
76216;BME280;65010;50.190;18.930;2024-03-25T02:19:15;96877.47;;;3.76;63.03
76216;BME280;65010;50.190;18.930;2024-03-25T02:22:19;96877.13;;;3.79;62.83
76216;BME280;65010;50.190;18.930;2024-03-25T02:25:24;96879.09;;;3.77;62.84
76216;BME280;65010;50.190;18.930;2024-03-25T02:28:29;96878.94;;;3.78;62.74
76216;BME280;65010;50.190;18.930;2024-03-25T02:31:31;96864.97;;;3.71;62.88
76216;BME280;65010;50.190;18.930;2024-03-25T02:34:33;96886.56;;;3.88;62.48
76216;BME280;65010;50.190;18.930;2024-03-25T02:37:36;96888.50;;;3.94;62.54
76216;BME280;65010;50.190;18.930;2024-03-25T02:40:39;96886.19;;;3.99;62.19
76216;BME280;65010;50.190;18.930;2024-03-25T02:43:43;96887.34;;;3.97;62.49
76216;BME280;65010;50.190;18.930;2024-03-25T02:46:45;96889.63;;;4.00;62.28
76216;BME280;65010;50.190;18.930;2024-03-25T02:49:48;96893.50;;;4.04;62.30
76216;BME280;65010;50.190;18.930;2024-03-25T02:52:50;96893.16;;;4.07;62.32
76216;BME280;65010;50.190;18.930;2024-03-25T02:55:52;96888.59;;;4.09;62.16
76216;BME280;65010;50.190;18.930;2024-03-25T02:58:56;96886.78;;;4.09;61.99
76216;BME280;65010;50.190;18.930;2024-03-25T03:01:59;96884.50;;;4.15;62.05
76216;BME280;65010;50.190;18.930;2024-03-25T03:05:01;96893.28;;;4.22;61.54
76216;BME280;65010;50.190;18.930;2024-03-25T03:08:04;96890.31;;;4.25;61.62
76216;BME280;65010;50.190;18.930;2024-03-25T03:11:06;96883.63;;;4.30;61.46
76216;BME280;65010;50.190;18.930;2024-03-25T03:14:11;96893.22;;;4.30;61.41
76216;BME280;65010;50.190;18.930;2024-03-25T03:17:12;96892.75;;;4.26;61.29
76216;BME280;65010;50.190;18.930;2024-03-25T03:20:15;96884.63;;;4.21;61.64
76216;BME280;65010;50.190;18.930;2024-03-25T03:23:16;96883.31;;;4.25;61.24
76216;BME280;65010;50.190;18.930;2024-03-25T03:26:19;96884.91;;;4.35;61.24
76216;BME280;65010;50.190;18.930;2024-03-25T03:29:23;96886.03;;;4.40;60.95
76216;BME280;65010;50.190;18.930;2024-03-25T03:32:26;96878.22;;;4.40;60.97
76216;BME280;65010;50.190;18.930;2024-03-25T03:35:27;96889.28;;;4.42;60.93
76216;BME280;65010;50.190;18.930;2024-03-25T03:38:30;96882.28;;;4.43;60.89
76216;BME280;65010;50.190;18.930;2024-03-25T03:41:31;96877.53;;;4.46;61.14
76216;BME280;65010;50.190;18.930;2024-03-25T03:44:37;96881.28;;;4.44;61.05
76216;BME280;65010;50.190;18.930;2024-03-25T03:47:38;96879.03;;;4.41;61.33
76216;BME280;65010;50.190;18.930;2024-03-25T03:50:41;96881.09;;;4.45;61.30
76216;BME280;65010;50.190;18.930;2024-03-25T03:53:44;96886.16;;;4.47;61.28
76216;BME280;65010;50.190;18.930;2024-03-25T03:56:46;96887.31;;;4.44;61.38
76216;BME280;65010;50.190;18.930;2024-03-25T03:59:51;96888.44;;;4.42;61.32
76216;BME280;65010;50.190;18.930;2024-03-25T04:02:53;96888.97;;;4.37;61.73
76216;BME280;65010;50.190;18.930;2024-03-25T04:05:55;96894.78;;;4.39;61.72
76216;BME280;65010;50.190;18.930;2024-03-25T04:08:57;96896.59;;;4.39;61.70
76216;BME280;65010;50.190;18.930;2024-03-25T04:12:02;96895.44;;;4.41;61.88
76216;BME280;65010;50.190;18.930;2024-03-25T04:15:08;96905.69;;;4.43;62.04
76216;BME280;65010;50.190;18.930;2024-03-25T04:18:10;96903.25;;;4.41;62.36
76216;BME280;65010;50.190;18.930;2024-03-25T04:21:12;96912.38;;;4.37;62.72
76216;BME280;65010;50.190;18.930;2024-03-25T04:24:14;96906.88;;;4.32;62.90
76216;BME280;65010;50.190;18.930;2024-03-25T04:27:16;96908.84;;;4.30;63.35
76216;BME280;65010;50.190;18.930;2024-03-25T04:30:21;96916.31;;;4.25;64.17
76216;BME280;65010;50.190;18.930;2024-03-25T04:33:23;96906.44;;;4.20;65.70
76216;BME280;65010;50.190;18.930;2024-03-25T04:36:25;96911.75;;;4.27;66.19
76216;BME280;65010;50.190;18.930;2024-03-25T04:39:27;96920.09;;;4.22;67.14
76216;BME280;65010;50.190;18.930;2024-03-25T04:42:29;96913.78;;;4.08;67.82
76216;BME280;65010;50.190;18.930;2024-03-25T04:45:34;96917.09;;;3.94;68.55
76216;BME280;65010;50.190;18.930;2024-03-25T04:48:36;96926.19;;;3.82;69.86
76216;BME280;65010;50.190;18.930;2024-03-25T04:51:39;96912.25;;;3.66;70.47
76216;BME280;65010;50.190;18.930;2024-03-25T04:54:40;96915.34;;;3.54;70.85
76216;BME280;65010;50.190;18.930;2024-03-25T04:57:43;96915.50;;;3.60;71.50
76216;BME280;65010;50.190;18.930;2024-03-25T05:00:47;96915.31;;;3.70;71.59
76216;BME280;65010;50.190;18.930;2024-03-25T05:03:49;96918.56;;;3.80;71.94
76216;BME280;65010;50.190;18.930;2024-03-25T05:06:51;96915.16;;;3.88;71.96
76216;BME280;65010;50.190;18.930;2024-03-25T05:09:54;96914.34;;;3.96;71.72
76216;BME280;65010;50.190;18.930;2024-03-25T05:12:55;96916.94;;;3.96;71.80
76216;BME280;65010;50.190;18.930;2024-03-25T05:16:00;96918.56;;;3.88;71.67
76216;BME280;65010;50.190;18.930;2024-03-25T05:19:02;96918.22;;;3.92;71.69
76216;BME280;65010;50.190;18.930;2024-03-25T05:22:05;96923.09;;;3.95;71.65
76216;BME280;65010;50.190;18.930;2024-03-25T05:25:07;96928.78;;;3.98;71.95
76216;BME280;65010;50.190;18.930;2024-03-25T05:28:10;96928.63;;;4.00;71.78
76216;BME280;65010;50.190;18.930;2024-03-25T05:31:14;96926.47;;;4.03;71.63
76216;BME280;65010;50.190;18.930;2024-03-25T05:34:16;96926.78;;;4.08;71.49
76216;BME280;65010;50.190;18.930;2024-03-25T05:37:18;96927.44;;;4.10;71.59
76216;BME280;65010;50.190;18.930;2024-03-25T05:40:21;96928.88;;;4.13;71.25
76216;BME280;65010;50.190;18.930;2024-03-25T05:43:23;96928.59;;;4.08;70.68
76216;BME280;65010;50.190;18.930;2024-03-25T05:46:28;96932.47;;;4.12;70.72
76216;BME280;65010;50.190;18.930;2024-03-25T05:49:29;96931.19;;;4.08;70.57
76216;BME280;65010;50.190;18.930;2024-03-25T05:52:32;96940.44;;;4.10;70.60
76216;BME280;65010;50.190;18.930;2024-03-25T05:55:35;96937.81;;;4.19;70.53
76216;BME280;65010;50.190;18.930;2024-03-25T05:58:37;96940.38;;;4.27;70.33
76216;BME280;65010;50.190;18.930;2024-03-25T06:01:42;96942.66;;;4.30;70.21
76216;BME280;65010;50.190;18.930;2024-03-25T06:04:44;96936.28;;;4.33;69.61
76216;BME280;65010;50.190;18.930;2024-03-25T06:07:46;96946.03;;;4.39;69.85
76216;BME280;65010;50.190;18.930;2024-03-25T06:10:48;96946.50;;;4.42;69.74
76216;BME280;65010;50.190;18.930;2024-03-25T06:13:49;96944.19;;;4.47;69.90
76216;BME280;65010;50.190;18.930;2024-03-25T06:16:56;96950.63;;;4.60;69.70
76216;BME280;65010;50.190;18.930;2024-03-25T06:19:58;96944.88;;;4.73;69.66
76216;BME280;65010;50.190;18.930;2024-03-25T06:23:01;96952.50;;;4.82;69.12
76216;BME280;65010;50.190;18.930;2024-03-25T06:26:03;96953.94;;;4.85;68.90
76216;BME280;65010;50.190;18.930;2024-03-25T06:29:06;96947.91;;;4.84;68.48
76216;BME280;65010;50.190;18.930;2024-03-25T06:32:10;96961.75;;;4.85;68.34
76216;BME280;65010;50.190;18.930;2024-03-25T06:35:28;96967.09;;;4.83;68.31
76216;BME280;65010;50.190;18.930;2024-03-25T06:38:29;96968.38;;;4.87;68.10
76216;BME280;65010;50.190;18.930;2024-03-25T06:41:32;96978.28;;;4.92;68.01
76216;BME280;65010;50.190;18.930;2024-03-25T06:44:33;96981.34;;;4.96;67.85
76216;BME280;65010;50.190;18.930;2024-03-25T06:47:38;96971.94;;;4.95;67.61
76216;BME280;65010;50.190;18.930;2024-03-25T06:50:40;96977.41;;;5.00;67.49
76216;BME280;65010;50.190;18.930;2024-03-25T06:53:42;96983.28;;;5.02;67.16
76216;BME280;65010;50.190;18.930;2024-03-25T06:56:44;96978.91;;;5.02;67.19
76216;BME280;65010;50.190;18.930;2024-03-25T06:59:46;96977.38;;;5.08;66.94
76216;BME280;65010;50.190;18.930;2024-03-25T07:02:50;96980.91;;;5.15;66.76
76216;BME280;65010;50.190;18.930;2024-03-25T07:05:53;96990.28;;;5.24;66.53
76216;BME280;65010;50.190;18.930;2024-03-25T07:08:54;96987.00;;;5.30;66.03
76216;BME280;65010;50.190;18.930;2024-03-25T07:11:57;96987.44;;;5.34;65.87
76216;BME280;65010;50.190;18.930;2024-03-25T07:14:58;97000.88;;;5.46;66.38
76216;BME280;65010;50.190;18.930;2024-03-25T07:18:04;97002.63;;;5.54;65.77
76216;BME280;65010;50.190;18.930;2024-03-25T07:21:06;97008.94;;;5.59;65.35
76216;BME280;65010;50.190;18.930;2024-03-25T07:24:08;97004.06;;;5.56;65.21
76216;BME280;65010;50.190;18.930;2024-03-25T07:27:10;97011.88;;;5.56;65.48
76216;BME280;65010;50.190;18.930;2024-03-25T07:30:13;97006.16;;;5.61;65.66
76216;BME280;65010;50.190;18.930;2024-03-25T07:33:17;97001.47;;;5.56;64.80
76216;BME280;65010;50.190;18.930;2024-03-25T07:36:19;97010.13;;;5.57;65.22
76216;BME280;65010;50.190;18.930;2024-03-25T07:39:21;97015.97;;;5.59;65.58
76216;BME280;65010;50.190;18.930;2024-03-25T07:42:24;97011.19;;;5.62;65.54
76216;BME280;65010;50.190;18.930;2024-03-25T07:45:25;97019.06;;;5.77;65.70
76216;BME280;65010;50.190;18.930;2024-03-25T07:48:30;97025.47;;;5.89;64.89
76216;BME280;65010;50.190;18.930;2024-03-25T07:51:32;97026.66;;;5.87;64.46
76216;BME280;65010;50.190;18.930;2024-03-25T07:54:35;97027.44;;;5.87;64.09
76216;BME280;65010;50.190;18.930;2024-03-25T07:57:36;97033.47;;;5.88;64.77
76216;BME280;65010;50.190;18.930;2024-03-25T08:00:39;97033.13;;;5.91;65.02
76216;BME280;65010;50.190;18.930;2024-03-25T08:03:43;97036.81;;;5.97;65.03
76216;BME280;65010;50.190;18.930;2024-03-25T08:06:45;97046.25;;;5.98;64.66
76216;BME280;65010;50.190;18.930;2024-03-25T08:09:47;97046.81;;;5.93;64.88
76216;BME280;65010;50.190;18.930;2024-03-25T08:12:49;97044.31;;;5.77;65.15
76216;BME280;65010;50.190;18.930;2024-03-25T08:15:51;97044.91;;;5.64;66.63
76216;BME280;65010;50.190;18.930;2024-03-25T08:18:56;97045.31;;;5.53;67.10
76216;BME280;65010;50.190;18.930;2024-03-25T08:21:58;97051.41;;;5.45;67.09
76216;BME280;65010;50.190;18.930;2024-03-25T08:25:00;97055.34;;;5.41;66.79
76216;BME280;65010;50.190;18.930;2024-03-25T08:28:02;97051.19;;;5.46;67.68
76216;BME280;65010;50.190;18.930;2024-03-25T08:31:05;97058.34;;;5.53;66.31
76216;BME280;65010;50.190;18.930;2024-03-25T08:34:09;97060.84;;;5.69;66.74
76216;BME280;65010;50.190;18.930;2024-03-25T08:37:11;97063.09;;;6.10;67.12
76216;BME280;65010;50.190;18.930;2024-03-25T08:40:14;97064.28;;;6.45;65.23
76216;BME280;65010;50.190;18.930;2024-03-25T08:43:17;97072.66;;;6.70;63.95
76216;BME280;65010;50.190;18.930;2024-03-25T08:46:18;97073.34;;;6.94;63.71
76216;BME280;65010;50.190;18.930;2024-03-25T08:49:23;97066.63;;;7.21;62.64
76216;BME280;65010;50.190;18.930;2024-03-25T08:52:25;97072.53;;;7.45;61.80
76216;BME280;65010;50.190;18.930;2024-03-25T08:55:28;97070.28;;;7.63;61.90
76216;BME280;65010;50.190;18.930;2024-03-25T08:58:30;97078.28;;;7.77;61.48
76216;BME280;65010;50.190;18.930;2024-03-25T09:01:33;97080.09;;;7.76;59.67
76216;BME280;65010;50.190;18.930;2024-03-25T09:04:37;97084.13;;;7.57;60.88
76216;BME280;65010;50.190;18.930;2024-03-25T09:07:39;97080.44;;;7.52;61.36
76216;BME280;65010;50.190;18.930;2024-03-25T09:10:43;97085.13;;;7.56;60.89
76216;BME280;65010;50.190;18.930;2024-03-25T09:14:00;97085.03;;;7.49;60.22
76216;BME280;65010;50.190;18.930;2024-03-25T09:17:03;97084.69;;;7.53;61.18
76216;BME280;65010;50.190;18.930;2024-03-25T09:20:09;97081.06;;;7.75;61.75
76216;BME280;65010;50.190;18.930;2024-03-25T09:23:13;97076.69;;;8.25;61.61
76216;BME280;65010;50.190;18.930;2024-03-25T09:26:18;97068.34;;;8.72;59.06
76216;BME280;65010;50.190;18.930;2024-03-25T09:29:20;97061.28;;;9.14;59.39
76216;BME280;65010;50.190;18.930;2024-03-25T09:32:22;97063.38;;;9.45;59.21
76216;BME280;65010;50.190;18.930;2024-03-25T09:35:26;97074.53;;;9.60;57.17
76216;BME280;65010;50.190;18.930;2024-03-25T09:38:29;97076.91;;;9.48;55.81
76216;BME280;65010;50.190;18.930;2024-03-25T09:41:33;97078.25;;;9.24;54.80
76216;BME280;65010;50.190;18.930;2024-03-25T09:44:39;97080.16;;;8.96;55.50
76216;BME280;65010;50.190;18.930;2024-03-25T09:47:40;97077.09;;;8.85;56.36
76216;BME280;65010;50.190;18.930;2024-03-25T09:50:50;97086.09;;;8.76;56.46
76216;BME280;65010;50.190;18.930;2024-03-25T09:53:54;97086.13;;;8.48;56.93
76216;BME280;65010;50.190;18.930;2024-03-25T09:56:56;97089.28;;;8.37;57.57
76216;BME280;65010;50.190;18.930;2024-03-25T10:00:00;97091.22;;;8.28;57.81
76216;BME280;65010;50.190;18.930;2024-03-25T10:03:03;97084.66;;;8.39;57.30
76216;BME280;65010;50.190;18.930;2024-03-25T10:06:08;97082.75;;;8.89;56.96
76216;BME280;65010;50.190;18.930;2024-03-25T10:09:10;97085.50;;;9.84;57.61
76216;BME280;65010;50.190;18.930;2024-03-25T10:12:12;97086.84;;;10.86;54.98
76216;BME280;65010;50.190;18.930;2024-03-25T10:15:15;97085.50;;;11.29;51.45
76216;BME280;65010;50.190;18.930;2024-03-25T10:18:17;97094.53;;;11.46;49.26
76216;BME280;65010;50.190;18.930;2024-03-25T10:21:22;97089.19;;;11.66;48.77
76216;BME280;65010;50.190;18.930;2024-03-25T10:24:24;97098.00;;;11.79;49.20
76216;BME280;65010;50.190;18.930;2024-03-25T10:27:29;97094.69;;;11.58;45.99
76216;BME280;65010;50.190;18.930;2024-03-25T10:30:30;97098.28;;;11.19;46.53
76216;BME280;65010;50.190;18.930;2024-03-25T10:33:33;97111.47;;;10.99;47.55
76216;BME280;65010;50.190;18.930;2024-03-25T10:36:37;97120.25;;;10.66;48.10
76216;BME280;65010;50.190;18.930;2024-03-25T10:39:48;97119.88;;;10.16;49.11
76216;BME280;65010;50.190;18.930;2024-03-25T10:42:51;97131.69;;;9.78;50.40
76216;BME280;65010;50.190;18.930;2024-03-25T10:45:55;97128.75;;;9.46;52.57
76216;BME280;65010;50.190;18.930;2024-03-25T10:49:11;97134.66;;;9.14;54.84
76216;BME280;65010;50.190;18.930;2024-03-25T10:52:27;97130.25;;;8.79;55.88
76216;BME280;65010;50.190;18.930;2024-03-25T10:55:31;97140.34;;;8.54;57.36
76216;BME280;65010;50.190;18.930;2024-03-25T10:58:36;97126.00;;;8.50;57.96
76216;BME280;65010;50.190;18.930;2024-03-25T11:01:40;97133.56;;;8.66;58.57
76216;BME280;65010;50.190;18.930;2024-03-25T11:04:45;97121.38;;;8.80;58.46
76216;BME280;65010;50.190;18.930;2024-03-25T11:07:50;97121.44;;;8.87;57.13
76216;BME280;65010;50.190;18.930;2024-03-25T11:10:52;97124.66;;;8.89;56.82
76216;BME280;65010;50.190;18.930;2024-03-25T11:13:54;97121.81;;;8.84;56.98
76216;BME280;65010;50.190;18.930;2024-03-25T11:16:56;97156.31;;;8.59;56.63
76216;BME280;65010;50.190;18.930;2024-03-25T11:20:14;97153.09;;;8.36;56.35
76216;BME280;65010;50.190;18.930;2024-03-25T11:23:20;97153.94;;;8.00;56.36
76216;BME280;65010;50.190;18.930;2024-03-25T11:26:24;97156.75;;;7.77;56.70
76216;BME280;65010;50.190;18.930;2024-03-25T11:29:27;97159.88;;;7.50;57.51
76216;BME280;65010;50.190;18.930;2024-03-25T11:32:30;97155.47;;;7.36;58.59
76216;BME280;65010;50.190;18.930;2024-03-25T11:35:43;97144.75;;;7.46;59.08
76216;BME280;65010;50.190;18.930;2024-03-25T11:39:00;97154.19;;;7.47;58.68
76216;BME280;65010;50.190;18.930;2024-03-25T11:42:04;97150.72;;;7.40;58.70
76216;BME280;65010;50.190;18.930;2024-03-25T11:45:10;97148.72;;;7.42;58.75
76216;BME280;65010;50.190;18.930;2024-03-25T11:48:17;97143.38;;;7.50;59.47
76216;BME280;65010;50.190;18.930;2024-03-25T11:51:19;97143.97;;;8.10;59.93
76216;BME280;65010;50.190;18.930;2024-03-25T11:54:27;97137.50;;;9.19;59.54
76216;BME280;65010;50.190;18.930;2024-03-25T11:57:29;97129.34;;;10.50;57.66
76216;BME280;65010;50.190;18.930;2024-03-25T12:00:32;97122.63;;;11.91;54.45
76216;BME280;65010;50.190;18.930;2024-03-25T12:03:33;97094.22;;;12.94;50.04
76216;BME280;65010;50.190;18.930;2024-03-25T12:06:36;97112.25;;;13.82;47.00
76216;BME280;65010;50.190;18.930;2024-03-25T12:09:40;97112.38;;;14.65;46.23
76216;BME280;65010;50.190;18.930;2024-03-25T12:12:58;97118.41;;;15.36;44.28
76216;BME280;65010;50.190;18.930;2024-03-25T12:15:59;97119.25;;;15.25;43.59
76216;BME280;65010;50.190;18.930;2024-03-25T12:19:02;97140.00;;;15.04;44.47
76216;BME280;65010;50.190;18.930;2024-03-25T12:22:04;97140.53;;;14.59;43.27
76216;BME280;65010;50.190;18.930;2024-03-25T12:25:11;97148.16;;;14.14;44.60
76216;BME280;65010;50.190;18.930;2024-03-25T12:28:13;97151.69;;;13.65;45.89
76216;BME280;65010;50.190;18.930;2024-03-25T12:31:16;97140.69;;;13.32;45.98
76216;BME280;65010;50.190;18.930;2024-03-25T12:34:17;97134.50;;;13.01;47.46
76216;BME280;65010;50.190;18.930;2024-03-25T12:37:20;97139.19;;;12.80;47.51
76216;BME280;65010;50.190;18.930;2024-03-25T12:40:28;97138.13;;;13.06;47.19
76216;BME280;65010;50.190;18.930;2024-03-25T12:43:32;97135.50;;;13.55;47.44
76216;BME280;65010;50.190;18.930;2024-03-25T12:46:34;97129.38;;;14.22;47.19
76216;BME280;65010;50.190;18.930;2024-03-25T12:49:37;97127.78;;;14.56;43.71
76216;BME280;65010;50.190;18.930;2024-03-25T12:52:38;97137.25;;;14.76;44.46
76216;BME280;65010;50.190;18.930;2024-03-25T12:55:43;97125.50;;;14.72;43.62
76216;BME280;65010;50.190;18.930;2024-03-25T12:58:47;97138.59;;;14.55;42.96
76216;BME280;65010;50.190;18.930;2024-03-25T13:01:49;97133.03;;;14.21;43.18
76216;BME280;65010;50.190;18.930;2024-03-25T13:04:51;97135.25;;;13.94;42.77
76216;BME280;65010;50.190;18.930;2024-03-25T13:07:54;97141.41;;;13.76;44.22
76216;BME280;65010;50.190;18.930;2024-03-25T13:10:58;97140.28;;;13.95;43.16
76216;BME280;65010;50.190;18.930;2024-03-25T13:14:01;97133.06;;;14.68;44.12
76216;BME280;65010;50.190;18.930;2024-03-25T13:17:04;97129.34;;;15.40;40.64
76216;BME280;65010;50.190;18.930;2024-03-25T13:20:07;97127.81;;;16.13;39.66
76216;BME280;65010;50.190;18.930;2024-03-25T13:23:10;97124.59;;;17.18;39.62
76216;BME280;65010;50.190;18.930;2024-03-25T13:26:15;97129.25;;;17.99;35.83
76216;BME280;65010;50.190;18.930;2024-03-25T13:29:16;97132.00;;;18.09;33.97
76216;BME280;65010;50.190;18.930;2024-03-25T13:32:19;97138.78;;;17.95;33.36
76216;BME280;65010;50.190;18.930;2024-03-25T13:35:21;97136.34;;;17.22;32.99
76216;BME280;65010;50.190;18.930;2024-03-25T13:38:23;97142.19;;;16.68;33.84
76216;BME280;65010;50.190;18.930;2024-03-25T13:41:28;97139.78;;;16.16;35.58
76216;BME280;65010;50.190;18.930;2024-03-25T13:44:31;97153.75;;;15.71;36.52
76216;BME280;65010;50.190;18.930;2024-03-25T13:47:32;97150.59;;;15.97;37.90
76216;BME280;65010;50.190;18.930;2024-03-25T13:50:35;97144.78;;;16.46;35.59
76216;BME280;65010;50.190;18.930;2024-03-25T13:53:36;97134.31;;;16.56;34.33
76216;BME280;65010;50.190;18.930;2024-03-25T13:56:41;97131.34;;;16.53;33.22
76216;BME280;65010;50.190;18.930;2024-03-25T13:59:43;97130.06;;;16.21;33.67
76216;BME280;65010;50.190;18.930;2024-03-25T14:02:48;97142.81;;;16.07;35.29
76216;BME280;65010;50.190;18.930;2024-03-25T14:05:50;97155.59;;;15.70;34.88
76216;BME280;65010;50.190;18.930;2024-03-25T14:08:53;97154.31;;;15.32;34.65
76216;BME280;65010;50.190;18.930;2024-03-25T14:11:58;97152.09;;;15.00;36.31
76216;BME280;65010;50.190;18.930;2024-03-25T14:15:01;97148.94;;;14.68;36.15
76216;BME280;65010;50.190;18.930;2024-03-25T14:18:03;97162.22;;;14.26;35.73
76216;BME280;65010;50.190;18.930;2024-03-25T14:21:07;97153.47;;;13.83;36.87
76216;BME280;65010;50.190;18.930;2024-03-25T14:24:09;97168.16;;;13.61;37.66
76216;BME280;65010;50.190;18.930;2024-03-25T14:27:15;97167.78;;;13.39;38.23
76216;BME280;65010;50.190;18.930;2024-03-25T14:30:17;97170.50;;;13.69;38.41
76216;BME280;65010;50.190;18.930;2024-03-25T14:33:20;97166.09;;;14.23;37.96
76216;BME280;65010;50.190;18.930;2024-03-25T14:36:22;97168.63;;;14.84;36.10
76216;BME280;65010;50.190;18.930;2024-03-25T14:39:25;97172.50;;;15.40;35.01
76216;BME280;65010;50.190;18.930;2024-03-25T14:42:30;97171.66;;;15.52;33.75
76216;BME280;65010;50.190;18.930;2024-03-25T14:45:33;97165.91;;;15.55;33.74
76216;BME280;65010;50.190;18.930;2024-03-25T14:48:35;97179.09;;;15.14;33.47
76216;BME280;65010;50.190;18.930;2024-03-25T14:51:38;97205.47;;;14.43;34.69
76216;BME280;65010;50.190;18.930;2024-03-25T14:54:40;97188.47;;;13.79;36.01
76216;BME280;65010;50.190;18.930;2024-03-25T14:57:45;97183.78;;;13.25;37.88
76216;BME280;65010;50.190;18.930;2024-03-25T15:00:47;97186.84;;;12.79;39.02
76216;BME280;65010;50.190;18.930;2024-03-25T15:03:50;97194.72;;;12.60;39.85
76216;BME280;65010;50.190;18.930;2024-03-25T15:06:52;97199.47;;;12.45;40.70
76216;BME280;65010;50.190;18.930;2024-03-25T15:09:55;97196.41;;;12.16;40.71
76216;BME280;65010;50.190;18.930;2024-03-25T15:13:00;97220.28;;;11.83;41.75
76216;BME280;65010;50.190;18.930;2024-03-25T15:16:05;97217.63;;;11.18;43.28
76216;BME280;65010;50.190;18.930;2024-03-25T15:19:07;97216.88;;;10.84;44.28
76216;BME280;65010;50.190;18.930;2024-03-25T15:22:10;97214.22;;;10.57;44.68
76216;BME280;65010;50.190;18.930;2024-03-25T15:25:12;97217.81;;;10.16;45.43
76216;BME280;65010;50.190;18.930;2024-03-25T15:28:18;97218.97;;;9.94;46.10
76216;BME280;65010;50.190;18.930;2024-03-25T15:31:21;97220.03;;;9.64;46.81
76216;BME280;65010;50.190;18.930;2024-03-25T15:34:23;97230.31;;;9.59;47.13
76216;BME280;65010;50.190;18.930;2024-03-25T15:37:25;97234.25;;;9.42;47.63
76216;BME280;65010;50.190;18.930;2024-03-25T15:40:29;97238.38;;;9.23;48.16
76216;BME280;65010;50.190;18.930;2024-03-25T15:43:34;97234.88;;;9.09;48.53
76216;BME280;65010;50.190;18.930;2024-03-25T15:46:37;97233.16;;;8.95;49.15
76216;BME280;65010;50.190;18.930;2024-03-25T15:49:39;97236.66;;;8.80;49.29
76216;BME280;65010;50.190;18.930;2024-03-25T15:52:42;97243.38;;;8.89;49.65
76216;BME280;65010;50.190;18.930;2024-03-25T15:55:44;97250.53;;;9.02;49.98
76216;BME280;65010;50.190;18.930;2024-03-25T15:58:50;97250.00;;;9.14;49.95
76216;BME280;65010;50.190;18.930;2024-03-25T16:01:52;97256.44;;;9.11;49.92
76216;BME280;65010;50.190;18.930;2024-03-25T16:04:55;97248.59;;;9.11;50.25
76216;BME280;65010;50.190;18.930;2024-03-25T16:07:57;97254.38;;;9.06;50.43